createdAt,value
2018-12-05T00:00:26.101Z,1.46
2018-12-05T00:02:54.500Z,1.46
2018-12-05T00:05:22.988Z,1.42
2018-12-05T00:07:52.035Z,1.41
2018-12-05T00:10:20.524Z,1.41
2018-12-05T00:12:48.898Z,1.46
2018-12-05T00:15:17.324Z,1.45
2018-12-05T00:17:45.865Z,1.51
2018-12-05T00:20:14.451Z,1.50
2018-12-05T00:22:42.777Z,1.49
2018-12-05T00:25:11.125Z,1.50
2018-12-05T00:27:39.435Z,1.47
2018-12-05T00:30:07.785Z,1.49
2018-12-05T00:32:36.172Z,1.49
2018-12-05T00:35:04.777Z,1.48
2018-12-05T00:37:33.128Z,1.51
2018-12-05T00:40:01.537Z,1.53
2018-12-05T00:42:32.678Z,1.53
2018-12-05T00:45:01.061Z,1.47
2018-12-05T00:47:29.385Z,1.44
2018-12-05T00:49:57.726Z,1.45
2018-12-05T00:52:26.038Z,1.45
2018-12-05T00:54:54.529Z,1.44
2018-12-05T00:57:23.214Z,1.41
2018-12-05T00:59:51.540Z,1.45
2018-12-05T01:02:20.351Z,1.44
2018-12-05T01:04:48.948Z,1.41
2018-12-05T01:07:17.400Z,1.40
2018-12-05T01:09:46.792Z,1.38
2018-12-05T01:12:15.119Z,1.38
2018-12-05T01:14:43.465Z,1.39
2018-12-05T01:17:11.820Z,1.34
2018-12-05T01:19:40.161Z,1.29
2018-12-05T01:22:08.509Z,1.33
2018-12-05T01:24:36.897Z,1.35
2018-12-05T01:27:05.253Z,1.34
2018-12-05T01:29:33.787Z,1.31
2018-12-05T01:32:02.268Z,1.31
2018-12-05T01:34:30.698Z,1.21
2018-12-05T01:36:59.055Z,1.24
2018-12-05T01:39:27.457Z,1.21
2018-12-05T01:41:56.362Z,1.21
2018-12-05T01:44:26.587Z,1.17
2018-12-05T01:46:54.928Z,1.17
2018-12-05T01:49:23.291Z,1.17
2018-12-05T01:51:51.737Z,1.13
2018-12-05T01:54:20.097Z,1.05
2018-12-05T01:56:48.525Z,0.94
2018-12-05T01:59:16.891Z,0.95
2018-12-05T02:01:45.357Z,1.04
2018-12-05T02:04:13.860Z,0.97
2018-12-05T02:06:42.961Z,1.01
2018-12-05T02:09:11.400Z,0.99
2018-12-05T02:11:39.724Z,0.96
2018-12-05T02:14:08.065Z,0.86
2018-12-05T02:16:36.773Z,0.78
2018-12-05T02:19:05.151Z,0.73
2018-12-05T02:21:34.008Z,0.64
2018-12-05T02:24:02.340Z,0.68
2018-12-05T02:26:30.690Z,0.50
2018-12-05T02:28:59.157Z,0.42
2018-12-05T02:31:27.485Z,0.36
2018-12-05T02:33:55.833Z,0.27
2018-12-05T02:36:24.209Z,0.19
2018-12-05T02:38:52.715Z,0.15
2018-12-05T02:41:21.302Z,0.12
2018-12-05T02:43:49.741Z,0.14
2018-12-05T02:46:18.173Z,0.05
2018-12-05T02:48:46.676Z,-0.02
2018-12-05T02:51:15.221Z,-0.04
2018-12-05T02:53:43.657Z,-0.09
2018-12-05T02:56:11.989Z,-0.07
2018-12-05T02:58:40.419Z,-0.11
2018-12-05T03:01:08.946Z,-0.10
2018-12-05T03:03:37.292Z,-0.11
2018-12-05T03:06:05.830Z,-0.09
2018-12-05T03:08:34.168Z,-0.18
2018-12-05T03:11:02.621Z,-0.16
2018-12-05T03:13:31.157Z,-0.09
2018-12-05T03:15:59.741Z,-0.08
2018-12-05T03:18:28.445Z,-0.09
2018-12-05T03:20:56.820Z,-0.16
2018-12-05T03:23:25.165Z,-0.17
2018-12-05T03:25:53.611Z,-0.16
2018-12-05T03:28:22.056Z,-0.20
2018-12-05T03:30:50.415Z,-0.24
2018-12-05T03:33:18.853Z,-0.37
2018-12-05T03:35:47.224Z,-0.40
2018-12-05T03:38:15.557Z,-0.42
2018-12-05T03:40:44.284Z,-0.46
2018-12-05T03:43:12.640Z,-0.42
2018-12-05T03:45:41.069Z,-0.42
2018-12-05T03:48:09.543Z,-0.46
2018-12-05T03:50:38.084Z,-0.45
2018-12-05T03:53:06.577Z,-0.44
2018-12-05T03:55:34.988Z,-0.47
2018-12-05T03:58:03.424Z,-0.42
2018-12-05T04:00:31.820Z,-0.36
2018-12-05T04:03:00.244Z,-0.35
2018-12-05T04:05:28.830Z,-0.45
2018-12-05T04:07:57.196Z,-0.54
2018-12-05T04:10:26.169Z,-0.63
2018-12-05T04:12:54.629Z,-0.70
2018-12-05T04:15:23.049Z,-0.63
2018-12-05T04:17:51.411Z,-0.52
2018-12-05T04:20:19.771Z,-0.52
2018-12-05T04:22:48.446Z,-0.52
2018-12-05T04:25:17.029Z,-0.49
2018-12-05T04:27:45.459Z,-0.48
2018-12-05T04:30:13.825Z,-0.55
2018-12-05T04:32:42.176Z,-0.58
2018-12-05T04:35:10.552Z,-0.60
2018-12-05T04:37:38.908Z,-0.69
2018-12-05T04:40:07.343Z,-0.73
2018-12-05T04:42:35.689Z,-0.76
2018-12-05T04:45:04.218Z,-0.66
2018-12-05T04:47:32.803Z,-0.68
2018-12-05T04:50:01.155Z,-0.71
2018-12-05T04:52:29.526Z,-0.75
2018-12-05T04:54:57.860Z,-0.81
2018-12-05T04:57:26.220Z,-0.86
2018-12-05T04:59:54.598Z,-0.91
2018-12-05T05:02:22.947Z,-0.79
2018-12-05T05:04:51.339Z,-0.80
2018-12-05T05:07:19.964Z,-0.83
2018-12-05T05:09:48.373Z,-0.78
2018-12-05T05:12:16.769Z,-0.84
2018-12-05T05:14:45.136Z,-0.86
2018-12-05T05:17:13.560Z,-0.82
2018-12-05T05:19:41.951Z,-0.80
2018-12-05T05:22:10.306Z,-0.75
2018-12-05T05:24:38.692Z,-0.77
2018-12-05T05:27:07.015Z,-0.81
2018-12-05T05:29:35.610Z,-0.84
2018-12-05T05:32:04.304Z,-0.85
2018-12-05T05:34:32.745Z,-0.84
2018-12-05T05:37:01.098Z,-0.88
2018-12-05T05:39:29.556Z,-0.95
2018-12-05T05:41:58.006Z,-0.89
2018-12-05T05:44:26.368Z,-0.96
2018-12-05T05:46:54.860Z,-0.96
2018-12-05T05:49:23.195Z,-0.88
2018-12-05T05:51:51.604Z,-0.38
2018-12-05T05:54:19.986Z,-0.26
2018-12-05T05:56:48.337Z,-0.01
2018-12-05T05:59:16.737Z,0.32
2018-12-05T06:01:45.107Z,0.37
2018-12-05T06:04:15.791Z,0.02
2018-12-05T06:06:44.581Z,-0.16
2018-12-05T06:09:13.327Z,-0.27
2018-12-05T06:11:41.716Z,-0.48
2018-12-05T06:14:10.112Z,-0.58
2018-12-05T06:16:38.575Z,-0.66
2018-12-05T06:19:07.030Z,-0.71
2018-12-05T06:21:35.428Z,-0.74
2018-12-05T06:24:07.095Z,-0.78
2018-12-05T06:26:35.568Z,-0.79
2018-12-05T06:29:03.960Z,-0.81
2018-12-05T06:31:32.505Z,-0.83
2018-12-05T06:34:00.859Z,-0.84
2018-12-05T06:36:29.227Z,-0.89
2018-12-05T06:38:59.447Z,-0.90
2018-12-05T06:41:28.251Z,-0.88
2018-12-05T06:43:56.594Z,-0.88
2018-12-05T06:46:25.013Z,-0.94
2018-12-05T06:48:53.443Z,-0.93
2018-12-05T06:51:22.032Z,-0.90
2018-12-05T06:53:50.490Z,-0.91
2018-12-05T06:56:18.887Z,-0.91
2018-12-05T06:58:47.243Z,-0.92
2018-12-05T07:01:15.952Z,-0.85
2018-12-05T07:03:47.488Z,-0.87
2018-12-05T07:06:15.895Z,-0.80
2018-12-05T07:08:44.254Z,-0.74
2018-12-05T07:11:12.604Z,-0.67
2018-12-05T07:13:41.023Z,-0.62
2018-12-05T07:16:09.364Z,-0.59
2018-12-05T07:18:37.750Z,-0.42
2018-12-05T07:21:06.164Z,-0.34
2018-12-05T07:23:34.548Z,-0.22
2018-12-05T07:26:02.913Z,-0.11
2018-12-05T07:28:31.360Z,-0.04
2018-12-05T07:30:59.809Z,0.06
2018-12-05T07:33:28.265Z,0.27
2018-12-05T07:35:57.392Z,0.45
2018-12-05T07:38:25.858Z,0.84
2018-12-05T07:40:54.228Z,1.05
2018-12-05T07:43:22.759Z,1.53
2018-12-05T07:45:51.243Z,1.66
2018-12-05T07:48:19.567Z,1.83
2018-12-05T07:50:47.948Z,2.02
2018-12-05T07:53:16.531Z,1.90
2018-12-05T07:55:44.873Z,2.12
2018-12-05T07:58:13.298Z,1.94
2018-12-05T08:00:41.690Z,2.02
2018-12-05T08:03:09.985Z,2.39
2018-12-05T08:05:38.351Z,2.62
2018-12-05T08:08:06.685Z,2.39
2018-12-05T08:10:35.815Z,2.39
2018-12-05T08:13:04.284Z,2.65
2018-12-05T08:15:33.395Z,3.00
2018-12-05T08:18:01.905Z,2.99
2018-12-05T08:20:30.605Z,2.80
2018-12-05T08:22:58.939Z,2.79
2018-12-05T08:25:27.456Z,3.39
2018-12-05T08:27:55.804Z,3.88
2018-12-05T08:30:24.377Z,4.09
2018-12-05T08:32:52.872Z,3.96
2018-12-05T08:35:21.223Z,4.16
2018-12-05T08:37:49.627Z,3.87
2018-12-05T08:40:17.997Z,3.65
2018-12-05T08:42:46.352Z,3.89
2018-12-05T08:45:14.771Z,3.88
2018-12-05T08:47:43.112Z,4.32
2018-12-05T08:50:11.515Z,4.62
2018-12-05T08:52:39.915Z,5.00
2018-12-05T08:55:08.620Z,6.03
2018-12-05T08:57:37.317Z,6.41
2018-12-05T09:00:07.077Z,6.59
2018-12-05T09:02:35.444Z,6.46
2018-12-05T09:05:04.900Z,6.95
2018-12-05T09:07:33.384Z,7.20
2018-12-05T09:10:01.830Z,7.08
2018-12-05T09:12:30.213Z,7.19
2018-12-05T09:14:58.691Z,7.02
2018-12-05T09:17:27.171Z,6.34
2018-12-05T09:19:55.632Z,6.15
2018-12-05T09:22:24.036Z,6.09
2018-12-05T09:24:52.388Z,6.09
2018-12-05T09:27:20.947Z,6.56
2018-12-05T09:29:49.383Z,7.78
2018-12-05T09:32:17.703Z,7.80
2018-12-05T09:34:46.027Z,8.08
2018-12-05T09:37:14.412Z,7.84
2018-12-05T09:39:42.847Z,7.87
2018-12-05T09:42:11.277Z,8.78
2018-12-05T09:44:39.810Z,8.00
2018-12-05T09:47:08.326Z,7.79
2018-12-05T09:49:36.650Z,7.85
2018-12-05T09:52:04.986Z,8.47
2018-12-05T09:54:33.613Z,9.13
2018-12-05T09:57:02.120Z,7.97
2018-12-05T09:59:30.597Z,8.28
2018-12-05T10:01:59.177Z,8.67
2018-12-05T10:04:27.579Z,8.93
2018-12-05T10:06:55.900Z,8.52
2018-12-05T10:09:24.251Z,8.83
2018-12-05T10:11:52.581Z,10.47
2018-12-05T10:14:20.923Z,9.63
2018-12-05T10:16:49.260Z,9.21
2018-12-05T10:19:17.612Z,9.53
2018-12-05T10:21:46.020Z,9.10
2018-12-05T10:24:14.408Z,9.35
2018-12-05T10:26:42.873Z,10.00
2018-12-05T10:29:11.184Z,10.17
2018-12-05T10:31:44.033Z,10.21
2018-12-05T10:34:10.059Z,10.52
2018-12-05T10:36:38.951Z,9.64
2018-12-05T10:39:07.291Z,9.90
2018-12-05T10:41:35.631Z,9.96
2018-12-05T10:44:03.976Z,10.42
2018-12-05T10:46:32.353Z,10.38
2018-12-05T10:49:00.731Z,11.82
2018-12-05T10:51:29.315Z,11.17
2018-12-05T10:53:57.675Z,10.92
2018-12-05T10:56:26.085Z,10.85
2018-12-05T10:58:54.529Z,11.10
2018-12-05T11:01:28.605Z,11.95
2018-12-05T11:03:56.950Z,12.03
2018-12-05T11:09:34.673Z,13.92
2018-12-05T11:12:09.008Z,13.39
2018-12-05T11:14:42.924Z,12.27
2018-12-05T11:17:16.805Z,12.62
2018-12-05T11:20:02.254Z,13.51
2018-12-05T11:22:36.419Z,12.79
2018-12-05T11:25:06.700Z,12.69
2018-12-05T11:27:35.659Z,12.37
2018-12-05T11:30:04.878Z,12.42
2018-12-05T11:32:33.226Z,12.32
2018-12-05T11:35:01.716Z,11.20
2018-12-05T11:37:30.154Z,11.62
2018-12-05T11:39:59.992Z,12.79
2018-12-05T11:42:28.387Z,12.40
2018-12-05T11:44:57.039Z,12.90
2018-12-05T11:47:25.523Z,12.96
2018-12-05T11:49:54.056Z,11.95
2018-12-05T11:52:22.449Z,11.88
2018-12-05T11:54:50.775Z,11.58
2018-12-05T11:57:21.047Z,12.18
2018-12-05T11:59:49.389Z,11.99
2018-12-05T12:02:22.335Z,12.07
2018-12-05T12:04:49.096Z,13.04
2018-12-05T12:07:17.469Z,12.41
2018-12-05T12:09:45.809Z,12.57
2018-12-05T12:15:16.976Z,13.54
2018-12-05T12:17:45.462Z,12.47
2018-12-05T12:20:13.841Z,11.62
2018-12-05T12:22:42.169Z,11.08
2018-12-05T12:25:10.598Z,11.55
2018-12-05T12:27:38.944Z,12.48
2018-12-05T12:30:07.315Z,12.63
2018-12-05T12:32:35.766Z,13.35
2018-12-05T12:35:04.372Z,12.83
2018-12-05T12:37:32.812Z,12.27
2018-12-05T12:40:01.222Z,11.69
2018-12-05T12:42:29.672Z,10.56
2018-12-05T12:44:58.030Z,9.77
2018-12-05T12:47:26.364Z,10.10
2018-12-05T12:49:54.743Z,10.53
2018-12-05T12:52:23.223Z,10.72
2018-12-05T12:54:51.983Z,10.42
2018-12-05T12:57:20.371Z,9.62
2018-12-05T12:59:48.696Z,9.75
2018-12-05T13:02:17.183Z,9.67
2018-12-05T13:04:45.612Z,9.44
2018-12-05T13:07:14.307Z,9.38
2018-12-05T13:09:42.637Z,9.58
2018-12-05T13:12:12.901Z,9.56
2018-12-05T13:14:41.231Z,8.85
2018-12-05T13:17:09.712Z,9.19
2018-12-05T13:19:38.048Z,9.96
2018-12-05T13:22:06.506Z,9.44
2018-12-05T13:24:34.936Z,9.72
2018-12-05T13:27:03.611Z,9.40
2018-12-05T13:29:31.967Z,8.78
2018-12-05T13:32:00.342Z,8.29
2018-12-05T13:34:28.752Z,7.96
2018-12-05T13:36:57.101Z,7.88
2018-12-05T13:39:25.428Z,7.54
2018-12-05T13:41:53.859Z,7.33
2018-12-05T13:44:22.197Z,7.39
2018-12-05T13:46:50.619Z,7.51
2018-12-05T13:49:19.248Z,7.53
2018-12-05T13:51:47.599Z,7.55
2018-12-05T13:54:15.983Z,7.41
2018-12-05T13:56:44.474Z,7.31
2018-12-05T13:59:13.056Z,7.30
2018-12-05T14:01:41.770Z,7.26
2018-12-05T14:04:10.099Z,7.12
2018-12-05T14:06:38.474Z,7.15
2018-12-05T14:09:07.160Z,7.11
2018-12-05T14:11:35.613Z,7.08
2018-12-05T14:14:03.955Z,6.94
2018-12-05T14:16:32.294Z,6.81
2018-12-05T14:19:00.663Z,6.60
2018-12-05T14:21:30.431Z,6.65
2018-12-05T14:23:58.755Z,6.56
2018-12-05T14:26:27.122Z,6.38
2018-12-05T14:28:55.510Z,6.23
2018-12-05T14:31:24.691Z,6.13
2018-12-05T14:33:53.024Z,5.99
2018-12-05T14:36:21.363Z,5.88
2018-12-05T14:38:49.846Z,5.88
2018-12-05T14:41:19.059Z,5.77
2018-12-05T14:43:47.411Z,5.63
2018-12-05T14:46:15.755Z,5.60
2018-12-05T14:48:44.198Z,5.57
2018-12-05T14:51:12.642Z,5.50
2018-12-05T14:53:41.072Z,5.35
2018-12-05T14:56:09.427Z,5.26
2018-12-05T14:58:37.826Z,5.17
2018-12-05T15:01:06.212Z,5.17
2018-12-05T15:03:34.840Z,5.13
2018-12-05T15:06:03.398Z,5.08
2018-12-05T15:08:31.908Z,4.98
2018-12-05T15:11:00.332Z,4.94
2018-12-05T15:13:28.767Z,4.85
2018-12-05T15:15:57.300Z,4.76
2018-12-05T15:18:25.641Z,4.65
2018-12-05T15:20:53.987Z,4.60
2018-12-05T15:23:22.439Z,4.55
2018-12-05T15:25:50.850Z,4.50
2018-12-05T15:28:19.161Z,4.53
2018-12-05T15:30:50.312Z,4.43
2018-12-05T15:33:18.791Z,4.40
2018-12-05T15:35:47.415Z,4.38
2018-12-05T15:38:19.813Z,4.33
2018-12-05T15:40:48.416Z,4.29
2018-12-05T15:43:16.858Z,4.22
2018-12-05T15:45:45.190Z,4.04
2018-12-05T15:48:13.576Z,3.93
2018-12-05T15:50:41.941Z,3.83
2018-12-05T15:53:10.286Z,3.81
2018-12-05T15:55:38.773Z,3.66
2018-12-05T15:58:07.112Z,3.52
2018-12-05T16:00:35.539Z,3.46
2018-12-05T16:03:04.000Z,3.37
2018-12-05T16:05:32.330Z,3.32
2018-12-05T16:08:04.587Z,3.21
2018-12-05T16:10:33.656Z,3.17
2018-12-05T16:13:02.140Z,3.10
2018-12-05T16:15:30.576Z,3.12
2018-12-05T16:17:59.146Z,3.15
2018-12-05T16:20:27.471Z,2.96
2018-12-05T16:22:56.352Z,2.98
2018-12-05T16:25:24.688Z,3.03
2018-12-05T16:27:53.160Z,3.00
2018-12-05T16:30:21.512Z,2.90
2018-12-05T16:32:49.872Z,2.73
2018-12-05T16:35:18.319Z,2.75
2018-12-05T16:37:46.639Z,2.72
2018-12-05T16:40:15.013Z,2.83
2018-12-05T16:42:43.645Z,2.94
2018-12-05T16:45:12.301Z,3.00
2018-12-05T16:47:40.645Z,2.99
2018-12-05T16:50:09.041Z,3.01
2018-12-05T16:52:37.434Z,2.96
2018-12-05T16:55:06.001Z,2.86
2018-12-05T16:57:34.400Z,2.86
2018-12-05T17:00:02.754Z,2.81
2018-12-05T17:02:31.138Z,2.72
2018-12-05T17:04:59.527Z,2.61
2018-12-05T17:07:27.954Z,2.52
2018-12-05T17:09:56.281Z,2.45
2018-12-05T17:12:24.611Z,2.37
2018-12-05T17:14:53.077Z,2.39
2018-12-05T17:17:21.528Z,2.37
2018-12-05T17:19:50.242Z,2.46
2018-12-05T17:22:18.717Z,2.48
2018-12-05T17:24:47.073Z,2.40
2018-12-05T17:27:15.442Z,2.28
2018-12-05T17:29:43.954Z,2.19
2018-12-05T17:32:12.332Z,2.08
2018-12-05T17:34:40.666Z,1.92
2018-12-05T17:37:09.998Z,1.92
2018-12-05T17:39:38.457Z,1.80
2018-12-05T17:42:06.780Z,1.71
2018-12-05T17:44:35.160Z,1.57
2018-12-05T17:47:03.504Z,1.58
2018-12-05T17:49:31.928Z,1.55
2018-12-05T17:52:00.267Z,1.57
2018-12-05T17:54:28.585Z,1.58
2018-12-05T17:56:56.917Z,1.57
2018-12-05T17:59:25.268Z,1.48
2018-12-05T18:01:53.598Z,1.45
2018-12-05T18:04:21.934Z,1.49
2018-12-05T18:06:50.359Z,1.52
2018-12-05T18:09:18.723Z,1.48
2018-12-05T18:11:47.191Z,1.53
2018-12-05T18:14:15.546Z,1.50
2018-12-05T18:16:44.026Z,1.58
2018-12-05T18:19:12.365Z,1.63
2018-12-05T18:21:40.757Z,1.73
2018-12-05T18:24:09.224Z,1.74
2018-12-05T18:26:37.911Z,1.76
2018-12-05T18:29:06.260Z,1.81
2018-12-05T18:31:34.708Z,1.74
2018-12-05T18:34:03.132Z,1.75
2018-12-05T18:36:31.579Z,1.82
2018-12-05T18:38:59.996Z,1.91
2018-12-05T18:41:29.016Z,2.04
2018-12-05T18:43:57.734Z,2.08
2018-12-05T18:46:26.079Z,2.11
2018-12-05T18:48:54.522Z,2.09
2018-12-05T18:51:22.895Z,2.16
2018-12-05T18:53:51.249Z,2.23
2018-12-05T18:56:19.707Z,2.21
2018-12-05T18:58:48.175Z,2.51
2018-12-05T19:01:16.619Z,2.46
2018-12-05T19:03:44.967Z,2.40
2018-12-05T19:06:13.655Z,2.45
2018-12-05T19:08:42.056Z,2.35
2018-12-05T19:11:10.466Z,2.33
2018-12-05T19:13:44.843Z,2.32
2018-12-05T19:16:13.160Z,2.33
2018-12-05T19:18:41.539Z,2.41
2018-12-05T19:21:09.923Z,2.40
2018-12-05T19:23:38.293Z,2.45
2018-12-05T19:26:07.237Z,2.43
2018-12-05T19:28:35.581Z,2.40
2018-12-05T19:31:03.983Z,2.38
2018-12-05T19:33:32.326Z,2.39
2018-12-05T19:36:00.725Z,2.38
2018-12-05T19:38:29.586Z,2.39
2018-12-05T19:40:57.915Z,2.37
2018-12-05T19:43:26.243Z,2.37
2018-12-05T19:45:55.440Z,2.37
2018-12-05T19:48:23.960Z,2.36
2018-12-05T19:50:52.420Z,2.43
2018-12-05T19:53:20.800Z,2.36
2018-12-05T19:55:49.194Z,2.41
2018-12-05T19:58:17.525Z,2.43
2018-12-05T20:00:47.756Z,2.42
2018-12-05T20:03:17.228Z,2.49
2018-12-05T20:05:45.619Z,2.45
2018-12-05T20:08:14.050Z,2.44
2018-12-05T20:10:42.403Z,2.43
2018-12-05T20:13:10.780Z,2.41
2018-12-05T20:15:39.193Z,2.37
2018-12-05T20:18:07.578Z,2.39
2018-12-05T20:20:35.982Z,2.41
2018-12-05T20:23:05.062Z,2.43
2018-12-05T20:25:33.555Z,2.36
2018-12-05T20:28:01.917Z,2.38
2018-12-05T20:30:30.267Z,2.42
2018-12-05T20:32:58.610Z,2.42
2018-12-05T20:35:27.595Z,2.39
2018-12-05T20:37:56.310Z,2.46
2018-12-05T20:40:24.923Z,2.52
2018-12-05T20:42:53.727Z,2.54
2018-12-05T20:45:22.056Z,2.55
2018-12-05T20:47:50.454Z,2.49
2018-12-05T20:50:18.950Z,2.49
2018-12-05T20:52:47.417Z,2.51
2018-12-05T20:55:15.825Z,2.49
2018-12-05T20:57:44.178Z,2.54
2018-12-05T21:00:12.652Z,2.56
2018-12-05T21:02:41.075Z,2.57
2018-12-05T21:05:09.453Z,2.52
2018-12-05T21:07:37.841Z,2.60
2018-12-05T21:10:06.220Z,2.60
2018-12-05T21:12:34.553Z,2.61
2018-12-05T21:15:03.195Z,2.67
2018-12-05T21:17:31.554Z,2.67
2018-12-05T21:19:59.941Z,2.75
2018-12-05T21:22:28.476Z,2.70
2018-12-05T21:24:56.888Z,2.70
2018-12-05T21:27:25.352Z,2.71
2018-12-05T21:29:54.077Z,2.71
2018-12-05T21:32:22.413Z,2.69
2018-12-05T21:34:50.830Z,2.72
2018-12-05T21:37:19.160Z,2.75
2018-12-05T21:39:47.593Z,2.72
2018-12-05T21:42:16.230Z,2.72
2018-12-05T21:44:44.619Z,2.74
2018-12-05T21:47:13.046Z,2.80
2018-12-05T21:49:41.822Z,2.83
2018-12-05T21:52:10.428Z,2.74
2018-12-05T21:54:38.768Z,2.78
2018-12-05T21:57:07.279Z,2.74
2018-12-05T21:59:35.667Z,2.83
2018-12-05T22:02:04.255Z,2.82
2018-12-05T22:04:32.608Z,2.83
2018-12-05T22:07:00.984Z,2.86
2018-12-05T22:09:29.378Z,2.85
2018-12-05T22:11:57.718Z,2.89
2018-12-05T22:14:26.094Z,2.89
2018-12-05T22:16:54.502Z,2.88
2018-12-05T22:19:22.844Z,2.86
2018-12-05T22:21:51.176Z,2.85
2018-12-05T22:24:19.587Z,2.90
2018-12-05T22:26:48.021Z,2.87
2018-12-05T22:29:16.396Z,2.88
2018-12-05T22:31:45.650Z,2.88
2018-12-05T22:34:14.275Z,2.89
2018-12-05T22:36:42.700Z,2.88
2018-12-05T22:39:11.073Z,2.88
2018-12-05T22:41:39.566Z,2.87
2018-12-05T22:44:07.967Z,2.90
2018-12-05T22:46:36.681Z,2.89
2018-12-05T22:49:05.163Z,2.89
2018-12-05T22:51:33.479Z,2.91
2018-12-05T22:54:02.044Z,2.92
2018-12-05T22:56:31.447Z,2.91
2018-12-05T22:59:00.067Z,2.93
2018-12-05T23:01:28.824Z,2.92
2018-12-05T23:03:57.225Z,2.95
2018-12-05T23:06:25.566Z,2.97
2018-12-05T23:08:53.929Z,2.94
2018-12-05T23:11:22.568Z,2.99
2018-12-05T23:13:50.996Z,3.01
2018-12-05T23:16:19.325Z,3.04
2018-12-05T23:18:47.744Z,3.00
2018-12-05T23:21:16.331Z,3.01
2018-12-05T23:23:44.725Z,3.03
2018-12-05T23:26:13.136Z,3.07
2018-12-05T23:28:41.815Z,3.08
2018-12-05T23:31:11.570Z,3.09
2018-12-05T23:33:39.915Z,3.09
2018-12-05T23:36:08.279Z,3.14
2018-12-05T23:38:36.681Z,3.17
2018-12-05T23:41:05.005Z,3.20
2018-12-05T23:43:33.919Z,3.26
2018-12-05T23:46:02.298Z,3.30
2018-12-05T23:48:30.657Z,3.32
2018-12-05T23:50:58.977Z,3.33
2018-12-05T23:53:27.311Z,3.41
2018-12-05T23:55:55.976Z,3.41
2018-12-05T23:58:24.374Z,3.43
